Time;durP1;ratioP1;P1;durP2;ratioP2;P2;SDS_P1;SDS_P2;PMS_P1;PMS_P2;Temp;Humidity;BMP_temperature;BMP_pressure;BME280_temperature;BME280_humidity;BME280_pressure;Samples;Min_cycle;Max_cycle;Signal;HPM_P1;HPM_P2
2022/11/18 00:00:48;;;;;;;49.97;44.10;;;7.30;99.90;;;;;;5111693;27;20047;-81
2022/11/18 00:03:15;;;;;;;49.55;42.45;;;7.30;99.90;;;;;;5090410;27;20594;-81
2022/11/18 00:05:41;;;;;;;49.55;42.53;;;7.20;99.90;;;;;;5109796;27;20051;-81
2022/11/18 00:08:07;;;;;;;52.05;44.60;;;7.30;99.90;;;;;;5110290;27;20089;-81
2022/11/18 00:10:36;;;;;;;55.47;46.13;;;7.30;99.90;;;;;;5058250;27;20137;-81
2022/11/18 00:15:49;;;;;;;58.35;45.85;;;7.20;99.90;;;;;;5108879;27;20059;-81
2022/11/18 00:18:15;;;;;;;55.20;45.03;;;7.20;99.90;;;;;;5091496;27;20047;-82
2022/11/18 00:20:40;;;;;;;58.30;45.40;;;7.30;99.90;;;;;;5110020;27;20062;-80
2022/11/18 00:23:06;;;;;;;59.05;46.78;;;7.20;99.90;;;;;;5109906;27;20046;-82
2022/11/18 00:25:33;;;;;;;58.95;46.67;;;7.30;99.90;;;;;;5076969;27;20047;-81
2022/11/18 00:28:01;;;;;;;62.03;47.30;;;7.30;99.90;;;;;;5097563;27;20394;-81
2022/11/18 00:30:27;;;;;;;60.25;47.50;;;7.30;99.90;;;;;;5098489;27;20106;-81
2022/11/18 00:32:53;;;;;;;60.65;46.90;;;7.20;99.90;;;;;;5080815;27;20043;-75
2022/11/18 00:35:22;;;;;;;66.22;48.03;;;7.30;99.90;;;;;;5082275;27;20183;-80
2022/11/18 00:37:51;;;;;;;66.05;48.47;;;7.30;99.90;;;;;;5106548;27;21235;-81
2022/11/18 00:40:17;;;;;;;67.07;48.08;;;7.30;99.90;;;;;;5118253;27;20078;-76
2022/11/18 00:42:52;;;;;;;70.25;47.90;;;7.30;99.90;;;;;;5073170;27;20135;-81
2022/11/18 00:45:22;;;;;;;72.55;48.90;;;7.30;99.90;;;;;;5108982;27;20063;-81
2022/11/18 00:47:48;;;;;;;72.57;49.83;;;7.30;99.90;;;;;;5109597;27;20074;-81
2022/11/18 00:50:14;;;;;;;77.55;50.70;;;7.30;99.90;;;;;;5091171;27;20438;-81
2022/11/18 00:52:40;;;;;;;78.18;51.65;;;7.30;99.90;;;;;;5073743;27;20044;-75
2022/11/18 00:55:07;;;;;;;78.20;51.35;;;7.30;99.90;;;;;;5109555;27;20070;-81
2022/11/18 00:57:32;;;;;;;76.65;50.05;;;7.30;99.90;;;;;;5093332;27;20485;-81
2022/11/18 01:00:01;;;;;;;74.00;49.58;;;7.30;99.90;;;;;;5115557;27;20050;-81
2022/11/18 01:02:26;;;;;;;81.57;52.33;;;7.30;99.90;;;;;;5093627;27;20130;-81
2022/11/18 01:04:52;;;;;;;80.70;51.78;;;7.20;99.90;;;;;;5112511;27;20047;-77
2022/11/18 01:07:18;;;;;;;78.18;50.55;;;7.30;99.90;;;;;;5092779;27;20804;-76
2022/11/18 01:09:47;;;;;;;81.65;51.25;;;7.30;99.90;;;;;;5112199;27;20031;-81
2022/11/18 01:14:58;;;;;;;88.63;52.85;;;7.30;99.90;;;;;;5112578;27;20878;-81
2022/11/18 01:17:24;;;;;;;83.53;52.72;;;7.30;99.90;;;;;;5105445;27;20047;-80
2022/11/18 01:19:50;;;;;;;87.15;52.47;;;7.30;99.90;;;;;;5110844;27;20509;-81
2022/11/18 01:22:16;;;;;;;86.28;52.80;;;7.30;99.90;;;;;;5111848;27;20070;-76
2022/11/18 01:24:41;;;;;;;78.50;49.67;;;7.30;99.90;;;;;;5120566;27;20409;-82
2022/11/18 01:27:07;;;;;;;88.20;53.85;;;7.40;99.90;;;;;;5137256;27;20043;-80
2022/11/18 01:29:33;;;;;;;89.35;53.40;;;7.30;99.90;;;;;;5112500;27;20058;-81
2022/11/18 01:31:59;;;;;;;87.55;52.28;;;7.40;99.90;;;;;;5076181;27;20429;-80
2022/11/18 01:34:27;;;;;;;94.93;54.55;;;7.30;99.90;;;;;;5093767;27;20043;-81
2022/11/18 01:36:55;;;;;;;86.68;53.17;;;7.30;99.90;;;;;;5086968;27;20570;-82
2022/11/18 01:39:23;;;;;;;87.00;53.50;;;7.30;99.90;;;;;;5106804;27;20047;-75
2022/11/18 01:41:53;;;;;;;92.43;54.55;;;7.30;99.90;;;;;;5104880;27;20197;-82
2022/11/18 01:44:56;;;;;;;92.25;55.17;;;7.30;99.90;;;;;;5141641;27;20492;-81
2022/11/18 01:47:24;;;;;;;94.53;56.30;;;7.30;99.90;;;;;;5112708;27;20054;-81
2022/11/18 01:49:53;;;;;;;97.78;54.78;;;7.40;99.90;;;;;;5111325;27;20076;-75
2022/11/18 01:52:20;;;;;;;97.05;53.75;;;7.30;99.90;;;;;;5095186;27;20443;-81
2022/11/18 01:54:54;;;;;;;93.38;53.63;;;7.30;99.90;;;;;;5112437;27;20277;-77
2022/11/18 01:57:22;;;;;;;96.75;55.42;;;7.30;99.90;;;;;;5111432;27;20515;-82
2022/11/18 01:59:53;;;;;;;90.57;53.33;;;7.30;99.90;;;;;;5113572;27;20362;-75
2022/11/18 02:02:21;;;;;;;86.05;53.22;;;7.30;99.90;;;;;;5108502;27;20107;-81
2022/11/18 02:04:48;;;;;;;91.07;53.30;;;7.30;99.90;;;;;;5097127;27;20559;-81
2022/11/18 02:07:15;;;;;;;91.13;54.47;;;7.30;99.90;;;;;;5094009;27;20051;-81
2022/11/18 02:09:42;;;;;;;85.25;52.53;;;7.30;99.90;;;;;;5140987;27;20409;-81
2022/11/18 02:12:08;;;;;;;87.55;52.65;;;7.30;99.90;;;;;;5140092;27;20062;-81
2022/11/18 02:14:38;;;;;;;81.95;51.38;;;7.30;99.90;;;;;;5094135;27;20417;-80
2022/11/18 02:17:13;;;;;;;83.87;51.83;;;7.40;99.90;;;;;;5089608;27;20474;-80
2022/11/18 02:19:59;;;;;;;79.20;50.83;;;7.30;99.90;;;;;;5112806;27;20297;-81
2022/11/18 02:22:48;;;;;;;77.75;51.17;;;7.30;99.90;;;;;;5113177;27;20081;-80
2022/11/18 02:25:32;;;;;;;77.00;49.63;;;7.30;99.90;;;;;;5111065;27;20099;-81
2022/11/18 02:28:10;;;;;;;77.22;51.28;;;7.10;99.90;;;;;;5132450;27;20585;-81
2022/11/18 02:31:08;;;;;;;80.50;51.55;;;7.30;99.90;;;;;;5142461;27;20039;-81
2022/11/18 02:34:02;;;;;;;82.18;52.20;;;7.30;99.90;;;;;;5100896;27;20058;-81
2022/11/18 02:36:39;;;;;;;77.18;50.53;;;7.30;99.90;;;;;;5094749;27;20586;-76
2022/11/18 02:39:15;;;;;;;75.82;50.58;;;7.30;99.90;;;;;;5111609;27;20056;-76
2022/11/18 02:41:43;;;;;;;83.95;54.30;;;7.30;99.90;;;;;;5111170;27;20047;-82
2022/11/18 02:44:16;;;;;;;78.28;52.85;;;7.40;99.90;;;;;;5068237;27;20043;-81
2022/11/18 02:46:50;;;;;;;79.50;51.10;;;7.30;99.90;;;;;;5109030;27;20092;-76
2022/11/18 02:49:30;;;;;;;82.65;51.60;;;7.30;99.90;;;;;;5102033;27;20047;-82
2022/11/18 02:51:57;;;;;;;79.00;52.83;;;7.30;99.90;;;;;;5111537;27;20051;-81
2022/11/18 02:54:25;;;;;;;83.25;52.88;;;7.30;99.90;;;;;;5108421;27;20560;-81
2022/11/18 02:56:52;;;;;;;82.20;52.45;;;7.30;99.90;;;;;;5112372;27;20051;-82
2022/11/18 02:59:19;;;;;;;83.68;52.20;;;7.30;99.90;;;;;;5086287;27;20050;-76
2022/11/18 03:01:45;;;;;;;75.97;51.72;;;7.30;99.90;;;;;;5106148;27;20818;-81
2022/11/18 03:04:15;;;;;;;81.78;52.30;;;7.30;99.90;;;;;;5060078;27;21263;-81
2022/11/18 03:07:01;;;;;;;74.47;50.25;;;7.30;99.90;;;;;;5076085;27;20143;-82
2022/11/18 03:09:32;;;;;;;73.00;50.10;;;7.30;99.90;;;;;;5111599;27;20055;-80
2022/11/18 03:12:04;;;;;;;74.70;50.55;;;7.30;99.90;;;;;;5115089;27;20047;-81
2022/11/18 03:14:51;;;;;;;71.88;49.83;;;7.20;99.90;;;;;;5108087;27;20083;-81
2022/11/18 03:17:29;;;;;;;80.70;51.30;;;7.30;99.90;;;;;;5114764;27;20047;-81
2022/11/18 03:20:07;;;;;;;71.45;48.88;;;7.30;99.90;;;;;;5096677;27;20051;-76
2022/11/18 03:22:39;;;;;;;71.30;49.40;;;7.20;99.90;;;;;;5091770;27;20348;-81
2022/11/18 03:25:08;;;;;;;69.88;48.60;;;7.20;99.90;;;;;;5119522;27;20296;-81
2022/11/18 03:27:52;;;;;;;71.03;51.33;;;7.20;99.90;;;;;;5122736;27;20086;-82
2022/11/18 03:30:20;;;;;;;65.13;48.60;;;7.20;99.90;;;;;;5108271;27;20537;-81
2022/11/18 03:33:04;;;;;;;70.35;48.60;;;7.20;99.90;;;;;;5095306;27;20054;-76
2022/11/18 03:35:36;;;;;;;69.88;49.22;;;7.20;99.90;;;;;;5108575;27;20043;-81
2022/11/18 03:38:15;;;;;;;70.47;49.42;;;7.20;99.90;;;;;;5110330;27;20103;-81
2022/11/18 03:40:49;;;;;;;68.35;47.90;;;7.20;99.90;;;;;;5114025;27;20051;-81
2022/11/18 03:43:20;;;;;;;69.68;48.58;;;7.20;99.90;;;;;;5094257;27;20085;-82
2022/11/18 03:46:00;;;;;;;63.80;47.70;;;7.20;99.90;;;;;;5105124;27;20418;-82
2022/11/18 03:48:33;;;;;;;69.30;47.70;;;7.20;99.90;;;;;;5106730;27;20553;-81
2022/11/18 03:51:07;;;;;;;67.78;48.35;;;7.20;99.90;;;;;;5094043;27;20505;-81
2022/11/18 03:53:47;;;;;;;66.45;47.15;;;7.20;99.90;;;;;;5109010;27;20100;-76
2022/11/18 03:56:21;;;;;;;69.25;49.08;;;7.20;99.90;;;;;;5107388;27;20630;-76
2022/11/18 03:59:00;;;;;;;66.00;47.45;;;7.30;99.90;;;;;;5113011;27;20091;-82
2022/11/18 04:01:50;;;;;;;61.47;45.63;;;7.20;99.90;;;;;;5110485;27;20104;-76
2022/11/18 04:04:18;;;;;;;66.82;47.17;;;7.20;99.90;;;;;;5110942;27;20050;-76
2022/11/18 04:07:17;;;;;;;63.83;46.85;;;7.20;99.90;;;;;;5094852;27;20389;-76
2022/11/18 04:09:49;;;;;;;63.60;46.53;;;7.20;99.90;;;;;;5111642;27;20472;-81
2022/11/18 04:12:22;;;;;;;64.45;46.30;;;7.20;99.90;;;;;;5111142;27;20520;-81
2022/11/18 04:14:51;;;;;;;60.17;46.35;;;7.20;99.90;;;;;;5080791;27;21963;-81
2022/11/18 04:17:20;;;;;;;59.30;45.55;;;7.20;99.90;;;;;;5078712;27;20046;-76
2022/11/18 04:19:46;;;;;;;64.22;47.00;;;7.20;99.90;;;;;;5079595;27;20377;-77
2022/11/18 04:22:16;;;;;;;61.83;46.25;;;7.20;99.90;;;;;;5075469;27;20108;-82
2022/11/18 04:24:42;;;;;;;63.15;46.45;;;7.20;99.90;;;;;;5098973;27;20081;-81
2022/11/18 04:27:08;;;;;;;61.38;45.53;;;7.20;99.90;;;;;;5089980;27;20099;-76
2022/11/18 04:29:33;;;;;;;66.03;47.20;;;7.10;99.90;;;;;;5081987;27;20046;-76
2022/11/18 04:32:00;;;;;;;60.08;45.92;;;7.10;99.90;;;;;;5109830;27;20038;-81
2022/11/18 04:34:27;;;;;;;61.55;45.88;;;7.10;99.90;;;;;;5090494;27;20039;-76
2022/11/18 04:36:53;;;;;;;57.72;43.60;;;7.10;99.90;;;;;;5090414;27;20518;-81
2022/11/18 04:39:19;;;;;;;62.92;45.80;;;7.10;99.90;;;;;;5089041;27;20100;-82
2022/11/18 04:41:56;;;;;;;62.08;45.25;;;7.10;99.90;;;;;;5135274;27;20047;-76
2022/11/18 04:44:27;;;;;;;61.47;44.67;;;7.10;99.90;;;;;;5108940;27;20054;-82
2022/11/18 04:46:55;;;;;;;66.30;45.75;;;7.10;99.90;;;;;;5109462;27;20122;-82
2022/11/18 04:49:22;;;;;;;59.65;45.45;;;7.10;99.90;;;;;;5069370;27;20043;-82
2022/11/18 04:51:48;;;;;;;67.40;44.92;;;7.00;99.90;;;;;;5090262;27;20051;-81
2022/11/18 04:54:22;;;;;;;60.28;43.85;;;7.10;99.90;;;;;;5105527;27;20062;-80
2022/11/18 04:56:48;;;;;;;61.30;44.72;;;7.00;99.90;;;;;;5089440;27;20083;-81
2022/11/18 04:59:22;;;;;;;63.10;44.40;;;7.00;99.90;;;;;;5108039;27;20118;-76
2022/11/18 05:01:52;;;;;;;62.03;43.85;;;7.00;99.90;;;;;;5104597;27;20079;-81
2022/11/18 05:04:25;;;;;;;64.13;43.00;;;7.00;99.90;;;;;;5067126;28;20062;-75
2022/11/18 05:06:51;;;;;;;61.70;42.85;;;7.00;99.90;;;;;;5107515;27;21051;-76
2022/11/18 05:09:17;;;;;;;67.93;42.75;;;7.00;99.90;;;;;;5088809;27;20492;-82
2022/11/18 05:14:31;;;;;;;63.08;43.08;;;7.00;99.90;;;;;;5107639;27;20055;-81
2022/11/18 05:17:03;;;;;;;63.07;43.40;;;7.00;99.90;;;;;;5107361;27;20378;-76
2022/11/18 05:19:29;;;;;;;65.82;44.30;;;7.00;99.90;;;;;;5107625;27;20044;-82
2022/11/18 05:21:56;;;;;;;63.60;41.75;;;7.00;99.90;;;;;;5116275;27;20566;-80
2022/11/18 05:24:25;;;;;;;62.42;42.88;;;7.00;99.90;;;;;;5088135;27;20051;-82
2022/11/18 05:26:52;;;;;;;63.17;42.80;;;7.00;99.90;;;;;;5089666;28;20111;-82
2022/11/18 05:29:19;;;;;;;64.82;42.75;;;7.00;99.90;;;;;;5094824;28;20053;-82
2022/11/18 05:31:49;;;;;;;66.63;42.95;;;7.00;99.90;;;;;;5139050;27;20557;-82
2022/11/18 05:34:18;;;;;;;70.47;45.00;;;6.90;99.90;;;;;;5094867;27;20039;-81
2022/11/18 05:36:44;;;;;;;63.57;42.10;;;6.90;99.90;;;;;;5108891;27;20062;-81
2022/11/18 05:39:10;;;;;;;69.28;43.05;;;6.90;99.90;;;;;;5137139;27;20114;-81
2022/11/18 05:44:20;;;;;;;66.57;43.30;;;6.90;99.90;;;;;;5102295;27;20050;-81
2022/11/18 05:46:46;;;;;;;68.32;43.00;;;6.90;99.90;;;;;;5095934;27;20054;-75
2022/11/18 05:49:12;;;;;;;66.60;42.88;;;6.90;99.90;;;;;;5098632;27;20313;-75
2022/11/18 05:51:38;;;;;;;67.00;43.17;;;6.90;99.90;;;;;;5082567;27;20111;-80
2022/11/18 05:54:07;;;;;;;65.88;43.15;;;6.90;99.90;;;;;;5115028;27;20138;-82
2022/11/18 05:56:38;;;;;;;69.63;43.97;;;6.90;99.90;;;;;;5113997;27;20115;-81
2022/11/18 05:59:05;;;;;;;62.70;42.00;;;6.90;99.90;;;;;;5092502;27;20047;-80
2022/11/18 06:01:43;;;;;;;60.10;41.60;;;6.90;99.90;;;;;;5094851;27;20559;-80
2022/11/18 06:04:24;;;;;;;66.70;42.55;;;6.90;99.90;;;;;;5140532;27;20051;-75
2022/11/18 06:06:54;;;;;;;64.78;41.50;;;6.90;99.90;;;;;;5112575;27;20061;-80
2022/11/18 06:09:24;;;;;;;66.50;42.50;;;6.90;99.90;;;;;;5109768;27;20062;-79
2022/11/18 06:11:55;;;;;;;71.72;42.97;;;6.90;99.90;;;;;;5113522;27;20389;-75
2022/11/18 06:14:26;;;;;;;69.35;44.72;;;6.90;99.90;;;;;;5094378;27;20055;-81
2022/11/18 06:16:57;;;;;;;64.80;43.30;;;6.90;99.90;;;;;;5114289;27;20039;-75
2022/11/18 06:19:23;;;;;;;69.68;43.90;;;6.90;99.90;;;;;;5111109;27;20404;-80
2022/11/18 06:21:52;;;;;;;71.70;44.33;;;6.90;99.90;;;;;;5115009;27;20847;-75
2022/11/18 06:24:18;;;;;;;66.95;43.38;;;7.00;99.90;;;;;;5106128;27;20736;-76
2022/11/18 06:26:45;;;;;;;64.20;42.40;;;6.80;99.90;;;;;;5059600;27;20144;-81
2022/11/18 06:29:13;;;;;;;68.00;42.97;;;6.90;99.90;;;;;;5114809;27;20058;-80
2022/11/18 06:31:43;;;;;;;69.20;43.38;;;6.80;99.90;;;;;;5109809;27;20057;-80
2022/11/18 06:34:09;;;;;;;66.32;42.63;;;6.80;99.90;;;;;;5099961;27;20047;-80
2022/11/18 06:36:35;;;;;;;68.43;42.67;;;6.80;99.90;;;;;;5088673;27;20458;-81
2022/11/18 06:39:05;;;;;;;69.35;43.42;;;6.80;99.90;;;;;;5102837;27;20418;-81
2022/11/18 06:41:34;;;;;;;67.75;44.00;;;6.80;99.90;;;;;;5109724;27;20047;-81
2022/11/18 06:44:00;;;;;;;63.85;41.65;;;6.80;99.90;;;;;;5111196;27;20066;-79
2022/11/18 06:49:12;;;;;;;67.65;40.72;;;6.80;99.90;;;;;;5096700;27;21005;-80
2022/11/18 06:51:39;;;;;;;62.70;39.42;;;6.80;99.90;;;;;;5087292;27;20492;-75
2022/11/18 06:54:05;;;;;;;64.03;40.03;;;6.70;99.90;;;;;;5118168;27;20535;-74
2022/11/18 06:56:31;;;;;;;70.20;42.92;;;6.70;99.90;;;;;;5092631;27;20497;-74
2022/11/18 06:58:58;;;;;;;69.75;42.25;;;6.70;99.90;;;;;;5087956;27;20589;-74
2022/11/18 07:01:33;;;;;;;72.40;42.83;;;6.70;99.90;;;;;;5094179;27;20317;-83
2022/11/18 07:03:59;;;;;;;68.13;43.00;;;6.70;99.90;;;;;;5113310;27;20501;-74
2022/11/18 07:06:27;;;;;;;69.03;43.75;;;6.70;99.90;;;;;;5094256;27;20061;-74
2022/11/18 07:08:54;;;;;;;64.20;41.92;;;6.70;99.90;;;;;;5096757;27;20112;-82
2022/11/18 07:11:22;;;;;;;55.92;38.50;;;6.70;99.90;;;;;;5134609;27;20397;-82
2022/11/18 07:13:48;;;;;;;50.05;36.00;;;6.60;99.90;;;;;;5135542;27;20047;-74
2022/11/18 07:16:19;;;;;;;53.42;36.33;;;6.70;99.90;;;;;;5061077;27;20047;-83
2022/11/18 07:18:47;;;;;;;53.88;36.25;;;6.70;99.90;;;;;;5121524;27;20404;-82
2022/11/18 07:21:18;;;;;;;49.45;34.85;;;6.70;99.90;;;;;;5121086;27;20744;-83
2022/11/18 07:23:45;;;;;;;51.30;33.92;;;6.70;99.90;;;;;;5102836;27;20054;-74
2022/11/18 07:26:12;;;;;;;44.17;32.50;;;6.70;99.90;;;;;;5101387;27;20058;-83
2022/11/18 07:28:39;;;;;;;41.92;31.58;;;6.60;99.90;;;;;;5085412;27;20501;-81
2022/11/18 07:31:13;;;;;;;47.95;32.88;;;6.70;99.90;;;;;;5083427;27;20031;-83
2022/11/18 07:33:41;;;;;;;48.42;33.65;;;6.60;99.90;;;;;;5102378;27;20061;-74
2022/11/18 07:36:12;;;;;;;49.45;33.90;;;6.60;99.90;;;;;;5102343;27;20133;-82
2022/11/18 07:38:38;;;;;;;50.65;34.65;;;6.60;99.90;;;;;;5100061;27;20559;-74
2022/11/18 07:41:10;;;;;;;57.15;35.95;;;6.60;99.90;;;;;;5099430;27;20055;-82
2022/11/18 07:43:36;;;;;;;54.35;35.00;;;6.60;99.90;;;;;;5084062;27;20416;-74
2022/11/18 07:46:22;;;;;;;61.63;37.92;;;6.60;99.90;;;;;;5101626;27;20134;-82
2022/11/18 07:48:51;;;;;;;58.75;36.42;;;6.60;99.90;;;;;;5099130;27;20126;-83
2022/11/18 07:51:18;;;;;;;62.75;36.92;;;6.60;99.90;;;;;;5100737;27;20954;-82
2022/11/18 07:53:45;;;;;;;56.17;37.17;;;6.60;99.90;;;;;;5105884;27;20208;-73
2022/11/18 07:56:11;;;;;;;51.05;35.25;;;6.60;99.90;;;;;;5109983;27;20086;-73
2022/11/18 07:58:38;;;;;;;56.55;36.13;;;6.50;99.90;;;;;;5089014;27;20047;-81
2022/11/18 08:01:10;;;;;;;53.70;34.72;;;6.50;99.90;;;;;;5092881;27;20051;-82
2022/11/18 08:03:37;;;;;;;54.05;34.97;;;6.60;99.90;;;;;;5115981;27;20096;-83
2022/11/18 08:06:05;;;;;;;54.33;34.90;;;6.50;99.90;;;;;;5109461;27;20505;-81
2022/11/18 08:08:31;;;;;;;41.97;30.90;;;6.50;99.90;;;;;;5106371;27;20094;-82
2022/11/18 08:10:59;;;;;;;48.08;31.80;;;6.60;99.90;;;;;;5111238;27;20114;-82
2022/11/18 08:13:25;;;;;;;45.00;31.13;;;6.50;99.90;;;;;;5072390;27;20525;-82
2022/11/18 08:15:52;;;;;;;43.88;31.00;;;6.50;99.90;;;;;;5085621;27;20606;-81
2022/11/18 08:18:18;;;;;;;40.78;30.10;;;6.50;99.90;;;;;;5102812;27;20051;-83
2022/11/18 08:20:44;;;;;;;40.15;29.23;;;6.50;99.90;;;;;;5106038;27;20145;-75
2022/11/18 08:23:11;;;;;;;43.97;29.90;;;6.50;99.90;;;;;;5073406;27;20068;-84
2022/11/18 08:25:37;;;;;;;43.85;30.92;;;6.50;99.90;;;;;;5097333;27;20055;-84
2022/11/18 08:28:03;;;;;;;47.72;32.38;;;6.50;99.90;;;;;;5106811;27;20093;-84
2022/11/18 08:30:29;;;;;;;46.42;30.73;;;6.50;99.90;;;;;;5071588;27;20606;-84
2022/11/18 08:32:55;;;;;;;46.30;30.80;;;6.50;99.90;;;;;;5106386;27;20055;-75
2022/11/18 08:35:21;;;;;;;45.60;31.73;;;6.50;99.90;;;;;;5106504;27;21503;-75
2022/11/18 08:37:46;;;;;;;43.72;31.05;;;6.50;99.90;;;;;;5127766;27;20251;-82
2022/11/18 08:40:13;;;;;;;40.97;29.75;;;6.50;99.90;;;;;;5107439;27;20043;-82
2022/11/18 08:42:41;;;;;;;43.30;31.08;;;6.50;99.90;;;;;;5087057;27;20413;-81
2022/11/18 08:45:07;;;;;;;41.03;29.23;;;6.50;99.90;;;;;;5103942;27;20116;-84
2022/11/18 08:47:34;;;;;;;42.53;30.45;;;6.50;99.90;;;;;;5103250;27;20130;-75
2022/11/18 08:50:01;;;;;;;45.15;30.20;;;6.50;99.90;;;;;;5086942;27;20051;-75
2022/11/18 08:52:27;;;;;;;41.72;28.48;;;6.50;99.90;;;;;;5132409;27;20055;-75
2022/11/18 08:54:56;;;;;;;41.28;28.85;;;6.50;99.90;;;;;;5086815;28;20804;-81
2022/11/18 08:57:22;;;;;;;44.63;29.75;;;6.40;99.90;;;;;;5103886;27;20051;-81
2022/11/18 08:59:48;;;;;;;39.35;27.90;;;6.50;99.90;;;;;;5104909;27;20035;-72
2022/11/18 09:02:16;;;;;;;38.70;27.60;;;6.50;99.90;;;;;;5086394;28;20402;-81
2022/11/18 09:04:42;;;;;;;40.38;28.90;;;6.40;99.90;;;;;;5100630;27;20123;-82
2022/11/18 09:07:08;;;;;;;41.67;29.08;;;6.40;99.90;;;;;;5070731;28;20046;-82
2022/11/18 09:09:35;;;;;;;44.70;29.92;;;6.50;99.90;;;;;;5109704;27;20059;-83
2022/11/18 09:12:13;;;;;;;39.40;28.00;;;6.50;99.90;;;;;;5109066;27;20055;-82
2022/11/18 09:14:44;;;;;;;44.03;29.40;;;6.50;99.90;;;;;;5094259;28;20051;-82
2022/11/18 09:17:10;;;;;;;46.78;30.33;;;6.40;99.90;;;;;;5076260;28;20047;-73
2022/11/18 09:19:36;;;;;;;40.10;28.77;;;6.40;99.90;;;;;;5113160;27;20459;-73
2022/11/18 09:22:03;;;;;;;43.15;30.80;;;6.40;99.90;;;;;;5115380;27;20076;-73
2022/11/18 09:24:32;;;;;;;47.47;31.38;;;6.40;99.90;;;;;;5112870;27;20262;-83
2022/11/18 09:27:02;;;;;;;48.75;32.20;;;6.40;99.90;;;;;;5114735;27;20135;-82
2022/11/18 09:29:31;;;;;;;48.47;31.55;;;6.50;99.90;;;;;;5106898;27;20485;-82
2022/11/18 09:32:00;;;;;;;44.33;31.80;;;6.40;99.90;;;;;;5113788;27;20374;-83
2022/11/18 09:34:27;;;;;;;47.97;32.80;;;6.40;99.90;;;;;;5090752;27;20544;-73
2022/11/18 09:36:55;;;;;;;46.13;32.38;;;6.50;99.90;;;;;;5095609;27;20378;-81
2022/11/18 09:39:25;;;;;;;44.83;31.85;;;6.40;99.90;;;;;;5112899;27;20055;-83
2022/11/18 09:41:50;;;;;;;42.42;30.33;;;6.50;99.90;;;;;;5114782;27;20050;-83
2022/11/18 09:44:34;;;;;;;39.38;29.00;;;6.50;99.90;;;;;;5114763;27;20058;-82
2022/11/18 09:47:06;;;;;;;37.97;28.63;;;6.50;99.90;;;;;;5114808;27;20319;-82
2022/11/18 09:49:36;;;;;;;38.40;28.42;;;6.40;99.90;;;;;;5117426;27;20385;-82
2022/11/18 09:52:31;;;;;;;41.28;30.25;;;6.40;99.90;;;;;;5111479;27;20053;-82
2022/11/18 09:55:01;;;;;;;40.60;28.45;;;6.40;99.90;;;;;;5138630;27;20047;-82
2022/11/18 09:57:48;;;;;;;42.75;30.95;;;6.40;99.90;;;;;;5110185;27;20093;-82
2022/11/18 10:00:15;;;;;;;35.80;27.52;;;6.40;99.90;;;;;;5093838;27;20043;-82
2022/11/18 10:02:57;;;;;;;37.28;27.58;;;6.40;99.90;;;;;;5110772;27;20621;-83
2022/11/18 10:05:29;;;;;;;34.05;26.25;;;6.40;99.90;;;;;;5110816;27;20497;-73
2022/11/18 10:08:05;;;;;;;34.88;27.13;;;6.40;99.90;;;;;;5113016;27;20080;-82
2022/11/18 10:10:57;;;;;;;35.40;27.83;;;6.40;99.90;;;;;;5102441;27;20138;-82
2022/11/18 10:13:44;;;;;;;30.98;25.15;;;6.30;99.90;;;;;;5125171;27;20311;-82
2022/11/18 10:16:19;;;;;;;30.67;25.48;;;6.30;99.90;;;;;;5111966;27;20049;-82
2022/11/18 10:19:24;;;;;;;28.77;23.98;;;6.30;99.90;;;;;;5108422;27;20083;-83
2022/11/18 10:22:05;;;;;;;30.33;24.60;;;6.30;99.90;;;;;;5110456;27;20179;-82
2022/11/18 10:24:41;;;;;;;28.75;23.50;;;6.30;99.90;;;;;;5110415;27;20040;-82
2022/11/18 10:27:13;;;;;;;30.23;24.85;;;6.40;99.90;;;;;;5093964;27;20060;-82
2022/11/18 10:29:40;;;;;;;35.38;26.05;;;6.30;99.90;;;;;;5108882;27;20613;-82
2022/11/18 10:32:15;;;;;;;32.47;25.08;;;6.40;99.90;;;;;;5112700;27;20073;-82
2022/11/18 10:34:55;;;;;;;36.90;26.85;;;6.40;99.90;;;;;;5092431;27;20324;-83
2022/11/18 10:37:21;;;;;;;35.42;26.20;;;6.40;99.90;;;;;;5112606;27;20134;-83
2022/11/18 10:39:52;;;;;;;38.28;27.13;;;6.50;99.90;;;;;;5134328;27;20051;-82
2022/11/18 10:42:24;;;;;;;39.45;28.33;;;6.40;99.90;;;;;;5118535;27;20278;-81
2022/11/18 10:44:50;;;;;;;38.40;28.45;;;6.40;99.90;;;;;;5093629;27;20413;-81
2022/11/18 10:47:34;;;;;;;40.55;28.20;;;6.30;99.90;;;;;;5106706;27;20042;-80
2022/11/18 10:50:21;;;;;;;36.80;26.27;;;6.30;99.90;;;;;;5088637;27;20650;-81
2022/11/18 10:52:54;;;;;;;37.75;26.58;;;6.30;99.90;;;;;;5108582;27;20097;-80
2022/11/18 10:55:26;;;;;;;39.30;26.67;;;6.30;99.90;;;;;;5098029;27;20134;-80
2022/11/18 10:57:59;;;;;;;42.30;29.80;;;6.30;99.90;;;;;;5111191;27;21685;-80
2022/11/18 11:00:39;;;;;;;40.25;29.05;;;6.30;99.90;;;;;;5088752;27;21529;-80
2022/11/18 11:03:20;;;;;;;45.85;29.95;;;6.30;99.90;;;;;;5112229;27;20504;-79
2022/11/18 11:05:45;;;;;;;37.28;28.08;;;6.20;99.90;;;;;;5108698;27;20055;-80
2022/11/18 11:08:22;;;;;;;38.10;27.95;;;6.20;99.90;;;;;;5109409;27;20051;-80
2022/11/18 11:11:01;;;;;;;38.05;27.13;;;6.30;99.90;;;;;;5107156;27;20058;-81
2022/11/18 11:13:29;;;;;;;35.45;27.90;;;6.30;99.90;;;;;;5109248;27;20725;-79
2022/11/18 11:16:00;;;;;;;37.00;27.35;;;6.30;99.90;;;;;;5086633;27;20042;-80
2022/11/18 11:18:42;;;;;;;;;;;6.30;99.90;;;;;;5106516;27;20051;-79
2022/11/18 11:21:17;;;;;;;34.05;25.27;;;6.30;99.90;;;;;;5136356;27;20329;-81
2022/11/18 11:23:44;;;;;;;32.35;25.67;;;6.30;99.90;;;;;;5108283;27;20082;-79
2022/11/18 11:26:21;;;;;;;35.65;27.30;;;6.30;99.90;;;;;;5107347;27;20055;-80
2022/11/18 11:29:05;;;;;;;41.70;27.92;;;6.30;99.90;;;;;;5107358;27;20055;-79
2022/11/18 11:32:01;;;;;;;37.25;26.48;;;6.30;99.90;;;;;;5092987;27;20047;-80
2022/11/18 11:34:48;;;;;;;32.13;24.55;;;6.30;99.90;;;;;;5108957;27;20039;-80
2022/11/18 11:37:20;;;;;;;29.42;23.60;;;6.30;99.90;;;;;;5111169;27;20137;-80
2022/11/18 11:40:00;;;;;;;29.77;23.52;;;6.30;99.90;;;;;;5108788;27;20081;-79
2022/11/18 11:43:00;;;;;;;31.95;25.40;;;6.20;99.90;;;;;;5091584;27;20082;-80
2022/11/18 11:45:46;;;;;;;24.77;21.13;;;6.30;99.90;;;;;;5093981;27;20059;-79
2022/11/18 11:48:31;;;;;;;28.75;22.83;;;6.30;99.90;;;;;;5109975;27;20053;-81
2022/11/18 11:51:25;;;;;;;26.77;21.42;;;6.20;99.90;;;;;;5114887;27;20127;-81
2022/11/18 11:54:09;;;;;;;27.73;21.90;;;6.20;99.90;;;;;;5093600;27;20529;-79
2022/11/18 11:56:49;;;;;;;28.73;21.63;;;6.20;99.90;;;;;;5095110;27;20107;-80
2022/11/18 11:59:26;;;;;;;27.02;20.02;;;6.20;99.90;;;;;;5113423;27;20166;-80
2022/11/18 12:02:27;;;;;;;27.02;20.35;;;6.20;99.90;;;;;;5120213;27;20089;-80
2022/11/18 12:05:17;;;;;;;26.27;19.65;;;6.20;99.90;;;;;;5111767;27;20039;-80
2022/11/18 12:07:59;;;;;;;25.50;19.30;;;6.20;99.90;;;;;;5111342;27;20051;-80
2022/11/18 12:10:30;;;;;;;27.02;21.20;;;6.20;99.90;;;;;;5130238;27;20051;-82
2022/11/18 12:13:07;;;;;;;23.60;16.80;;;6.10;99.90;;;;;;5107207;27;20049;-81
2022/11/18 12:15:58;;;;;;;24.77;18.48;;;6.10;99.90;;;;;;5110585;27;20110;-80
2022/11/18 12:18:39;;;;;;;26.50;19.58;;;6.00;99.90;;;;;;5105386;27;20066;-80
2022/11/18 12:21:04;;;;;;;28.40;21.95;;;6.00;99.90;;;;;;5094751;27;20047;-81
2022/11/18 12:23:32;;;;;;;30.42;22.88;;;6.00;99.90;;;;;;5085317;27;20081;-81
2022/11/18 12:26:05;;;;;;;25.85;18.75;;;6.00;99.90;;;;;;5134919;27;20058;-82
2022/11/18 12:28:42;;;;;;;24.85;19.85;;;6.00;99.90;;;;;;5091390;27;20074;-81
2022/11/18 12:31:17;;;;;;;27.35;19.65;;;5.90;99.90;;;;;;5091864;27;20493;-81
2022/11/18 12:33:49;;;;;;;25.67;20.15;;;5.90;99.90;;;;;;5109080;27;20123;-82
2022/11/18 12:36:41;;;;;;;25.88;19.75;;;5.90;99.90;;;;;;5089002;27;20066;-81
2022/11/18 12:39:31;;;;;;;26.75;20.85;;;5.90;99.90;;;;;;5086188;27;20249;-81
2022/11/18 12:44:44;;;;;;;26.38;20.40;;;5.90;99.90;;;;;;5102757;27;20059;-81
2022/11/18 12:47:11;;;;;;;30.17;21.95;;;5.80;99.90;;;;;;5099256;27;20074;-80
2022/11/18 12:53:46;;;;;;;27.08;19.40;;;5.80;99.90;;;;;;5004103;28;20091;-82
2022/11/18 12:56:20;;;;;;;27.95;19.77;;;5.80;99.90;;;;;;5045323;28;20143;-81
2022/11/18 12:58:49;;;;;;;26.65;19.85;;;5.80;99.90;;;;;;5019991;28;20595;-82
2022/11/18 13:01:19;;;;;;;25.17;18.27;;;5.80;99.90;;;;;;5030984;28;20053;-81
2022/11/18 13:03:45;;;;;;;24.60;18.20;;;5.70;99.90;;;;;;5026720;28;20079;-81
2022/11/18 13:06:30;;;;;;;24.35;18.33;;;5.70;99.90;;;;;;5008926;28;20048;-80
2022/11/18 13:09:04;;;;;;;23.00;17.73;;;5.70;99.90;;;;;;5020364;28;20125;-80
2022/11/18 13:11:49;;;;;;;25.17;18.63;;;5.60;99.90;;;;;;5028295;28;20069;-82
2022/11/18 13:17:53;;;;;;;24.30;18.30;;;5.60;99.90;;;;;;5021580;28;20046;-73
2022/11/18 13:20:36;;;;;;;27.10;19.10;;;5.60;99.90;;;;;;5032993;28;20120;-73
2022/11/18 13:26:41;;;;;;;28.77;20.55;;;5.50;99.90;;;;;;5032991;28;20056;-73
2022/11/18 13:29:25;;;;;;;29.75;21.27;;;5.50;99.90;;;;;;4966646;28;20058;-73